createdAt,value
2019-05-02T00:00:14.652Z,26.33
2019-05-02T00:02:44.341Z,28.63
2019-05-02T00:05:16.292Z,26.83
2019-05-02T00:07:46.041Z,26.57
2019-05-02T00:10:19.964Z,26.70
2019-05-02T00:12:50.817Z,26.90
2019-05-02T00:15:20.902Z,27.40
2019-05-02T00:17:50.258Z,25.67
2019-05-02T00:20:21.119Z,26.23
2019-05-02T00:22:52.300Z,27.70
2019-05-02T00:25:21.687Z,28.60
2019-05-02T00:27:51.103Z,25.77
2019-05-02T00:30:21.594Z,25.57
2019-05-02T00:32:53.149Z,26.47
2019-05-02T00:35:21.975Z,27.10
2019-05-02T00:37:51.412Z,26.67
2019-05-02T00:40:25.623Z,25.17
2019-05-02T00:42:53.353Z,25.57
2019-05-02T00:45:23.952Z,26.10
2019-05-02T00:48:04.890Z,25.10
2019-05-02T00:50:40.471Z,26.77
2019-05-02T00:53:12.080Z,26.23
2019-05-02T00:55:39.623Z,26.07
2019-05-02T00:58:08.914Z,27.87
2019-05-02T01:00:56.670Z,26.33
2019-05-02T01:03:31.832Z,25.97
2019-05-02T01:05:59.982Z,26.53
2019-05-02T01:08:30.921Z,25.57
2019-05-02T01:11:00.414Z,27.70
2019-05-02T01:13:29.723Z,24.83
2019-05-02T01:15:59.065Z,27.67
2019-05-02T01:18:28.405Z,26.60
2019-05-02T01:20:58.175Z,24.63
2019-05-02T01:23:29.531Z,25.53
2019-05-02T01:25:59.530Z,25.17
2019-05-02T01:28:49.327Z,25.47
2019-05-02T01:31:25.208Z,25.57
2019-05-02T01:34:07.493Z,24.37
2019-05-02T01:36:46.445Z,26.37
2019-05-02T01:39:15.777Z,29.37
2019-05-02T01:41:45.136Z,27.10
2019-05-02T01:44:14.427Z,26.77
2019-05-02T01:46:43.709Z,25.53
2019-05-02T01:49:16.912Z,26.87
2019-05-02T01:51:47.321Z,25.13
2019-05-02T01:54:15.197Z,25.47
2019-05-02T01:56:44.533Z,24.77
2019-05-02T01:59:13.840Z,27.47
2019-05-02T02:01:43.196Z,25.47
2019-05-02T02:04:16.178Z,25.40
2019-05-02T02:06:45.169Z,30.40
2019-05-02T02:09:15.131Z,25.53
2019-05-02T02:11:44.465Z,25.87
2019-05-02T02:14:18.363Z,26.13
2019-05-02T02:16:44.896Z,27.63
2019-05-02T02:19:19.500Z,28.90
2019-05-02T02:22:02.692Z,26.60
2019-05-02T02:24:38.458Z,26.67
2019-05-02T02:27:08.360Z,30.40
2019-05-02T02:29:39.125Z,26.77
2019-05-02T02:32:08.689Z,27.13
2019-05-02T02:34:38.021Z,25.23
2019-05-02T02:37:13.235Z,26.63
2019-05-02T02:39:38.437Z,25.70
2019-05-02T02:42:07.818Z,26.30
2019-05-02T02:44:47.628Z,28.63
2019-05-02T02:47:18.803Z,25.93
2019-05-02T02:49:47.990Z,26.97
2019-05-02T02:52:17.408Z,24.83
2019-05-02T02:54:46.701Z,24.10
2019-05-02T02:57:25.719Z,24.67
2019-05-02T02:59:47.071Z,24.97
2019-05-02T03:02:16.716Z,24.23
2019-05-02T03:04:46.525Z,27.07
2019-05-02T03:07:24.142Z,25.13
2019-05-02T03:09:47.712Z,25.13
2019-05-02T03:12:36.143Z,26.37
2019-05-02T03:15:10.029Z,25.73
2019-05-02T03:17:39.389Z,26.13
2019-05-02T03:20:09.089Z,25.40
2019-05-02T03:22:41.997Z,29.30
2019-05-02T03:25:10.517Z,27.93
2019-05-02T03:27:40.500Z,28.20
2019-05-02T03:30:29.713Z,27.90
2019-05-02T03:33:02.747Z,26.93
2019-05-02T03:35:18.397Z,28.47
2019-05-02T03:37:44.677Z,26.93
2019-05-02T03:40:15.511Z,28.07
2019-05-02T03:42:47.694Z,29.17
2019-05-02T03:45:15.972Z,29.73
2019-05-02T03:47:46.515Z,28.00
2019-05-02T03:50:16.553Z,29.00
2019-05-02T03:52:46.495Z,28.20
2019-05-02T03:55:16.491Z,31.83
2019-05-02T03:57:45.814Z,27.83
2019-05-02T04:00:21.165Z,28.93
2019-05-02T04:02:59.135Z,30.63
2019-05-02T04:05:19.680Z,28.97
2019-05-02T04:07:49.049Z,29.77
2019-05-02T04:10:38.823Z,33.97
2019-05-02T04:13:08.301Z,29.83
2019-05-02T04:15:37.649Z,29.73
2019-05-02T04:18:08.440Z,32.63
2019-05-02T04:20:43.489Z,32.03
2019-05-02T04:23:10.038Z,45.17
2019-05-02T04:25:39.400Z,36.37
2019-05-02T04:28:12.250Z,29.87
2019-05-02T04:30:45.200Z,30.70
2019-05-02T04:33:10.894Z,29.83
2019-05-02T04:35:40.197Z,35.87
2019-05-02T04:38:19.724Z,32.57
2019-05-02T04:40:44.910Z,28.27
2019-05-02T04:43:11.820Z,28.70
2019-05-02T04:45:53.076Z,27.37
2019-05-02T04:48:12.741Z,27.77
2019-05-02T04:50:42.045Z,29.77
2019-05-02T04:53:11.401Z,28.53
2019-05-02T04:55:40.687Z,31.07
2019-05-02T04:58:10.132Z,34.93
2019-05-02T05:00:45.014Z,33.67
2019-05-02T05:03:15.690Z,30.43
2019-05-02T05:05:41.658Z,30.77
2019-05-02T05:08:11.099Z,29.40
2019-05-02T05:10:44.502Z,33.17
2019-05-02T05:13:12.121Z,27.93
2019-05-02T05:15:48.711Z,28.43
2019-05-02T05:18:14.604Z,25.43
2019-05-02T05:20:46.045Z,23.77
2019-05-02T05:23:21.543Z,23.07
2019-05-02T05:26:03.429Z,24.47
2019-05-02T05:28:28.333Z,25.50
2019-05-02T05:30:58.354Z,26.77
2019-05-02T05:33:28.478Z,24.43
2019-05-02T05:35:58.617Z,26.43
2019-05-02T05:38:32.209Z,24.40
2019-05-02T05:41:03.090Z,23.63
2019-05-02T05:43:30.397Z,25.53
2019-05-02T05:46:09.234Z,23.43
2019-05-02T05:48:32.146Z,25.07
2019-05-02T05:51:03.175Z,26.90
2019-05-02T05:53:32.593Z,23.37
2019-05-02T05:56:03.177Z,23.57
2019-05-02T05:58:32.565Z,25.23
2019-05-02T06:01:01.993Z,23.97
2019-05-02T06:03:33.914Z,24.37
2019-05-02T06:06:02.394Z,22.90
2019-05-02T06:08:31.721Z,23.03
2019-05-02T06:11:01.021Z,22.33
2019-05-02T06:13:30.360Z,22.43
2019-05-02T06:16:02.502Z,23.17
2019-05-02T06:18:30.761Z,22.90
2019-05-02T06:21:03.310Z,19.67
2019-05-02T06:23:35.761Z,19.60
2019-05-02T06:26:07.714Z,17.63
2019-05-02T06:28:36.490Z,17.93
2019-05-02T06:31:07.170Z,17.50
2019-05-02T06:33:35.760Z,18.63
2019-05-02T06:36:05.633Z,17.63
2019-05-02T06:38:35.101Z,18.70
2019-05-02T06:41:04.440Z,18.07
2019-05-02T06:43:33.837Z,16.97
2019-05-02T06:46:15.383Z,17.50
2019-05-02T06:48:34.228Z,17.90
2019-05-02T06:51:03.679Z,17.03
2019-05-02T06:53:35.099Z,20.37
2019-05-02T06:56:08.021Z,22.00
2019-05-02T06:58:37.181Z,17.77
2019-05-02T07:01:06.368Z,18.83
2019-05-02T07:10:46.353Z,18.87
2019-05-02T07:13:15.715Z,18.87
2019-05-02T07:16:04.069Z,18.97
2019-05-02T07:18:42.135Z,18.53
2019-05-02T07:21:12.100Z,18.40
2019-05-02T07:23:40.741Z,18.17
2019-05-02T07:26:10.084Z,16.67
2019-05-02T07:28:40.320Z,19.50
2019-05-02T07:31:12.026Z,16.17
2019-05-02T07:33:41.669Z,14.90
2019-05-02T07:36:11.137Z,14.57
2019-05-02T07:38:40.476Z,17.10
2019-05-02T07:41:09.766Z,17.60
2019-05-02T07:43:39.109Z,14.97
2019-05-02T07:46:08.461Z,17.53
2019-05-02T07:48:37.851Z,16.03
2019-05-02T07:51:07.141Z,16.17
2019-05-02T07:53:36.563Z,16.57
2019-05-02T07:56:05.946Z,17.67
2019-05-02T07:58:38.417Z,17.30
2019-05-02T08:01:12.881Z,16.47
2019-05-02T08:03:37.878Z,17.00
2019-05-02T08:06:07.225Z,18.03
2019-05-02T08:08:36.597Z,20.77
2019-05-02T08:11:06.442Z,17.53
2019-05-02T08:13:35.823Z,16.13
2019-05-02T08:16:05.365Z,15.73
2019-05-02T08:18:34.780Z,17.27
2019-05-02T08:21:04.663Z,16.00
2019-05-02T08:23:34.030Z,17.03
2019-05-02T08:26:03.367Z,16.83
2019-05-02T08:28:51.776Z,16.57
2019-05-02T08:31:19.156Z,19.77
2019-05-02T08:33:49.319Z,17.20
2019-05-02T08:36:18.621Z,17.17
2019-05-02T08:38:48.827Z,18.00
2019-05-02T08:41:20.417Z,17.57
2019-05-02T08:43:50.517Z,18.20
2019-05-02T08:46:19.833Z,17.27
2019-05-02T08:48:50.667Z,19.40
2019-05-02T08:51:20.205Z,20.13
2019-05-02T08:53:52.057Z,20.33
2019-05-02T08:56:21.481Z,19.57
2019-05-02T08:58:51.154Z,19.30
2019-05-02T09:01:21.132Z,18.93
2019-05-02T09:03:55.462Z,26.43
2019-05-02T09:06:22.367Z,20.03
2019-05-02T09:08:52.860Z,19.10
2019-05-02T09:11:22.798Z,19.03
2019-05-02T09:13:52.651Z,19.20
2019-05-02T09:16:28.545Z,20.07
2019-05-02T09:18:54.481Z,19.40
2019-05-02T09:21:26.684Z,17.60
2019-05-02T09:23:55.577Z,22.90
2019-05-02T09:26:35.053Z,19.23
2019-05-02T09:29:00.611Z,20.40
2019-05-02T09:31:27.273Z,18.67
2019-05-02T09:33:56.717Z,17.87
2019-05-02T09:36:26.108Z,17.40
2019-05-02T09:38:57.625Z,20.40
2019-05-02T09:41:26.855Z,18.90
2019-05-02T09:43:57.596Z,17.80
2019-05-02T09:46:26.970Z,18.57
2019-05-02T09:48:57.185Z,17.73
2019-05-02T09:51:27.281Z,18.33
2019-05-02T09:53:57.024Z,20.40
2019-05-02T09:56:27.633Z,17.00
2019-05-02T09:59:06.224Z,16.93
2019-05-02T10:01:39.122Z,18.37
2019-05-02T10:04:09.010Z,15.73
2019-05-02T10:06:38.689Z,15.50
2019-05-02T10:09:12.006Z,15.30
2019-05-02T10:11:41.816Z,15.23
2019-05-02T10:14:13.388Z,16.00
2019-05-02T10:16:42.822Z,18.83
2019-05-02T10:19:13.475Z,18.70
2019-05-02T10:21:47.035Z,17.87
2019-05-02T10:24:14.394Z,18.80
2019-05-02T10:26:43.733Z,16.33
2019-05-02T10:29:13.129Z,16.63
2019-05-02T10:31:43.709Z,16.57
2019-05-02T10:34:17.654Z,16.07
2019-05-02T10:36:45.586Z,16.60
2019-05-02T10:39:15.915Z,19.73
2019-05-02T10:41:45.938Z,16.47
2019-05-02T10:44:15.288Z,15.20
2019-05-02T10:46:57.342Z,15.23
2019-05-02T10:49:42.588Z,16.13
2019-05-02T10:52:12.689Z,15.10
2019-05-02T10:54:42.226Z,14.80
2019-05-02T10:57:12.724Z,13.03
2019-05-02T10:59:42.733Z,13.83
2019-05-02T11:02:22.441Z,12.57
2019-05-02T11:04:54.817Z,12.97
2019-05-02T11:07:26.391Z,12.93
2019-05-02T11:09:57.452Z,15.47
2019-05-02T11:12:43.455Z,16.20
2019-05-02T11:15:29.639Z,11.93
2019-05-02T11:17:58.982Z,11.10
2019-05-02T11:20:28.973Z,13.60
2019-05-02T11:22:58.341Z,13.47
2019-05-02T11:25:27.640Z,14.57
2019-05-02T11:27:57.400Z,14.23
2019-05-02T11:30:28.042Z,15.23
2019-05-02T11:32:57.806Z,14.20
2019-05-02T11:35:27.137Z,13.73
2019-05-02T11:37:56.481Z,13.20
2019-05-02T11:40:25.818Z,15.23
2019-05-02T11:42:57.202Z,11.60
2019-05-02T11:45:26.231Z,13.00
2019-05-02T11:47:56.099Z,12.83
2019-05-02T11:50:26.791Z,11.07
2019-05-02T11:52:57.598Z,13.80
2019-05-02T11:55:28.976Z,15.30
2019-05-02T11:58:00.821Z,14.10
2019-05-02T12:00:29.058Z,15.17
2019-05-02T12:03:28.126Z,13.70
2019-05-02T12:05:57.349Z,10.47
2019-05-02T12:08:27.239Z,13.40
2019-05-02T12:10:56.539Z,12.93
2019-05-02T12:13:27.340Z,11.97
2019-05-02T12:15:56.677Z,15.60
2019-05-02T12:18:26.054Z,14.77
2019-05-02T12:20:55.427Z,12.30
2019-05-02T12:23:24.801Z,12.80
2019-05-02T12:25:54.433Z,14.47
2019-05-02T12:28:23.738Z,12.47
2019-05-02T12:30:53.118Z,17.77
2019-05-02T12:33:24.000Z,19.50
2019-05-02T12:35:53.322Z,15.20
2019-05-02T12:38:23.184Z,14.23
2019-05-02T12:40:53.390Z,14.17
2019-05-02T12:43:23.013Z,13.47
2019-05-02T12:45:53.054Z,14.10
2019-05-02T12:48:23.178Z,13.63
2019-05-02T12:50:52.851Z,12.80
2019-05-02T12:53:23.014Z,14.00
2019-05-02T12:55:52.842Z,14.87
2019-05-02T12:58:22.793Z,16.80
2019-05-02T13:00:53.059Z,10.80
2019-05-02T13:03:54.241Z,12.17
2019-05-02T13:06:23.550Z,11.80
2019-05-02T13:08:52.954Z,10.40
2019-05-02T13:11:46.998Z,9.33
2019-05-02T13:14:19.704Z,13.23
2019-05-02T13:16:53.603Z,13.07
2019-05-02T13:19:23.672Z,11.70
2019-05-02T13:22:17.841Z,12.67
2019-05-02T13:24:54.092Z,13.50
2019-05-02T13:27:22.853Z,12.60
2019-05-02T13:29:53.578Z,11.43
2019-05-02T13:32:38.029Z,10.90
2019-05-02T13:35:27.483Z,11.00
2019-05-02T13:37:59.705Z,10.70
2019-05-02T13:40:42.482Z,9.77
2019-05-02T13:43:13.561Z,12.60
2019-05-02T13:45:57.673Z,9.10
2019-05-02T13:48:27.094Z,9.97
2019-05-02T13:50:56.433Z,9.50
2019-05-02T13:53:25.849Z,10.87
2019-05-02T13:56:17.000Z,9.27
2019-05-02T13:58:46.754Z,10.43
2019-05-02T14:01:17.613Z,12.10
2019-05-02T14:03:46.924Z,9.37
2019-05-02T14:06:16.353Z,11.23
2019-05-02T14:09:16.483Z,9.60
2019-05-02T14:11:52.639Z,9.27
2019-05-02T14:14:22.807Z,6.97
2019-05-02T14:16:53.098Z,8.53
2019-05-02T14:19:23.021Z,6.70
2019-05-02T14:21:52.371Z,7.47
2019-05-02T14:24:23.202Z,7.43
2019-05-02T14:26:53.174Z,7.73
2019-05-02T14:29:22.561Z,7.73
2019-05-02T14:31:52.071Z,9.37
2019-05-02T14:34:42.569Z,6.20
2019-05-02T14:37:12.012Z,6.87
2019-05-02T14:39:42.458Z,7.10
2019-05-02T14:42:15.305Z,7.20
2019-05-02T14:45:03.600Z,6.20
2019-05-02T14:47:17.727Z,8.03
2019-05-02T14:49:45.653Z,6.73
2019-05-02T14:52:15.006Z,6.23
2019-05-02T14:54:47.909Z,6.03
2019-05-02T14:57:25.473Z,7.57
2019-05-02T14:59:53.500Z,9.10
2019-05-02T15:02:47.558Z,6.37
2019-05-02T15:05:19.159Z,8.53
2019-05-02T15:07:46.713Z,7.20
2019-05-02T15:10:16.300Z,9.50
2019-05-02T15:12:45.644Z,7.83
2019-05-02T15:15:15.402Z,10.20
2019-05-02T15:17:44.745Z,6.47
2019-05-02T15:20:14.448Z,6.40
2019-05-02T15:22:44.057Z,5.93
2019-05-02T15:25:17.698Z,11.43
2019-05-02T15:27:45.268Z,9.27
2019-05-02T15:30:16.324Z,7.40
2019-05-02T15:32:56.787Z,5.73
2019-05-02T15:35:43.143Z,8.97
2019-05-02T15:38:20.681Z,6.47
2019-05-02T15:40:49.958Z,6.30
2019-05-02T15:43:14.587Z,5.97
2019-05-02T15:45:45.451Z,6.63
2019-05-02T15:48:22.601Z,5.87
2019-05-02T15:50:52.480Z,6.03
2019-05-02T15:54:04.969Z,6.73
2019-05-02T15:56:25.889Z,6.63
2019-05-02T15:58:58.132Z,6.20
2019-05-02T16:01:41.238Z,6.73
2019-05-02T16:04:10.414Z,8.17
2019-05-02T16:06:41.770Z,9.63
2019-05-02T16:09:11.902Z,5.97
2019-05-02T16:11:43.483Z,7.00
2019-05-02T16:14:12.917Z,5.63
2019-05-02T16:16:45.229Z,5.80
2019-05-02T16:19:14.965Z,9.47
2019-05-02T16:21:59.456Z,7.33
2019-05-02T16:24:29.441Z,6.67
2019-05-02T16:26:58.754Z,6.07
2019-05-02T16:29:28.810Z,7.73
2019-05-02T16:32:16.890Z,10.07
2019-05-02T16:35:12.196Z,7.70
2019-05-02T16:37:37.909Z,8.13
2019-05-02T16:40:08.792Z,8.50
2019-05-02T16:42:41.702Z,7.77
2019-05-02T16:45:11.815Z,7.77
2019-05-02T16:47:42.305Z,7.93
2019-05-02T16:50:13.319Z,6.00
2019-05-02T16:52:47.171Z,6.33
2019-05-02T16:55:21.242Z,5.37
2019-05-02T16:57:46.241Z,5.33
2019-05-02T17:00:23.662Z,5.23
2019-05-02T17:02:53.224Z,5.20
2019-05-02T17:05:22.528Z,7.13
2019-05-02T17:08:18.630Z,6.10
2019-05-02T17:11:15.643Z,6.60
2019-05-02T17:13:43.917Z,7.87
2019-05-02T17:16:17.125Z,13.47
2019-05-02T17:18:48.366Z,10.90
2019-05-02T17:21:15.583Z,9.57
2019-05-02T17:23:46.805Z,20.27
2019-05-02T17:26:16.086Z,16.73
2019-05-02T17:28:47.262Z,8.73
2019-05-02T17:31:19.244Z,7.63
2019-05-02T17:33:51.059Z,6.70
2019-05-02T17:36:23.674Z,8.80
2019-05-02T17:38:53.810Z,8.33
2019-05-02T17:41:22.610Z,13.00
2019-05-02T17:43:52.228Z,10.47
2019-05-02T17:46:25.724Z,10.03
2019-05-02T17:48:53.887Z,9.67
2019-05-02T17:51:33.988Z,10.50
2019-05-02T17:54:03.194Z,9.47
2019-05-02T17:56:32.657Z,6.50
2019-05-02T17:59:02.605Z,8.17
2019-05-02T18:01:35.965Z,8.60
2019-05-02T18:04:06.806Z,11.73
2019-05-02T18:06:36.960Z,8.97
2019-05-02T18:09:08.728Z,8.83
2019-05-02T18:11:38.095Z,10.10
2019-05-02T18:14:18.956Z,7.47
2019-05-02T18:16:39.386Z,8.63
2019-05-02T18:19:09.341Z,7.47
2019-05-02T18:21:38.773Z,7.97
2019-05-02T18:24:08.162Z,6.00
2019-05-02T18:26:37.505Z,7.03
2019-05-02T18:29:07.130Z,18.40
2019-05-02T18:31:40.124Z,23.07
2019-05-02T18:34:12.516Z,8.67
2019-05-02T18:36:39.269Z,13.23
2019-05-02T18:39:09.451Z,21.00
2019-05-02T18:41:44.769Z,12.67
2019-05-02T18:44:11.699Z,10.17
2019-05-02T18:46:41.718Z,10.97
2019-05-02T18:49:12.380Z,13.93
2019-05-02T18:51:42.444Z,11.57
2019-05-02T18:54:12.867Z,9.33
2019-05-02T18:56:49.078Z,12.77
2019-05-02T18:59:14.196Z,17.47
2019-05-02T19:01:47.428Z,14.40
2019-05-02T19:04:15.822Z,8.30
2019-05-02T19:06:45.229Z,7.70
2019-05-02T19:09:17.469Z,8.37
2019-05-02T19:11:45.669Z,7.70
2019-05-02T19:14:16.709Z,12.63
2019-05-02T19:16:46.203Z,17.63
2019-05-02T19:19:15.557Z,11.13
2019-05-02T19:21:44.863Z,14.37
2019-05-02T19:24:14.201Z,9.57
2019-05-02T19:26:49.164Z,8.27
2019-05-02T19:29:26.800Z,9.90
2019-05-02T19:31:57.320Z,10.83
2019-05-02T19:34:27.083Z,13.27
2019-05-02T19:37:02.847Z,11.53
2019-05-02T19:39:32.236Z,8.97
2019-05-02T19:42:01.894Z,6.63
2019-05-02T19:44:33.930Z,6.83
2019-05-02T19:47:03.102Z,8.73
2019-05-02T19:49:32.897Z,8.00
2019-05-02T19:52:02.998Z,7.50
2019-05-02T19:54:39.494Z,8.50
2019-05-02T19:57:03.479Z,9.27
2019-05-02T19:59:32.870Z,8.73
2019-05-02T20:02:06.102Z,10.03
2019-05-02T20:04:37.632Z,7.70
2019-05-02T20:07:05.390Z,9.17
2019-05-02T20:09:38.215Z,6.73
2019-05-02T20:12:09.665Z,8.13
2019-05-02T20:14:38.238Z,6.83
2019-05-02T20:17:15.024Z,7.77
2019-05-02T20:19:43.713Z,8.40
2019-05-02T20:22:17.824Z,9.50
2019-05-02T20:24:55.252Z,7.43
2019-05-02T20:27:23.981Z,6.80
2019-05-02T20:29:53.293Z,7.80
2019-05-02T20:32:22.629Z,6.70
2019-05-02T20:34:52.013Z,8.03
2019-05-02T20:37:22.072Z,6.77
2019-05-02T20:39:52.202Z,7.57
2019-05-02T20:42:21.577Z,7.40
2019-05-02T20:44:52.827Z,7.50
2019-05-02T20:47:25.301Z,7.60
2019-05-02T20:49:55.012Z,9.10
2019-05-02T20:52:24.373Z,8.30
2019-05-02T20:54:53.792Z,7.27
2019-05-02T20:57:23.181Z,7.37
2019-05-02T20:59:52.762Z,8.40
2019-05-02T21:02:22.636Z,8.87
2019-05-02T21:04:52.331Z,8.37
2019-05-02T21:07:44.036Z,8.30
2019-05-02T21:10:21.856Z,8.57
2019-05-02T21:12:52.604Z,8.63
2019-05-02T21:15:22.578Z,8.10
2019-05-02T21:17:52.325Z,9.73
2019-05-02T21:20:21.969Z,10.03
2019-05-02T21:22:52.984Z,10.37
2019-05-02T21:25:23.470Z,9.03
2019-05-02T21:27:52.873Z,9.50
2019-05-02T21:30:26.453Z,9.50
2019-05-02T21:32:55.813Z,11.43
2019-05-02T21:35:25.122Z,10.07
2019-05-02T21:37:54.474Z,11.20
2019-05-02T21:40:25.741Z,9.63
2019-05-02T21:42:54.901Z,10.80
2019-05-02T21:45:24.243Z,9.87
2019-05-02T21:47:53.544Z,11.50
2019-05-02T21:50:44.037Z,10.13
2019-05-02T21:53:32.710Z,9.90
2019-05-02T21:56:09.125Z,10.40
2019-05-02T21:58:38.417Z,8.60
2019-05-02T22:01:12.751Z,9.30
2019-05-02T22:03:42.713Z,9.20
2019-05-02T22:06:12.317Z,9.63
2019-05-02T22:08:42.365Z,15.60
2019-05-02T22:11:12.183Z,11.10
2019-05-02T22:13:42.403Z,10.60
2019-05-02T22:16:12.921Z,9.40
2019-05-02T22:18:43.165Z,11.50
2019-05-02T22:21:12.455Z,9.00
2019-05-02T22:23:42.597Z,9.93
2019-05-02T22:26:12.899Z,11.40
2019-05-02T22:28:42.813Z,9.40
2019-05-02T22:31:12.440Z,11.83
2019-05-02T22:33:44.648Z,9.53
2019-05-02T22:36:13.613Z,10.00
2019-05-02T22:38:52.724Z,9.27
2019-05-02T22:41:22.210Z,10.67
2019-05-02T22:43:52.151Z,12.13
2019-05-02T22:46:46.416Z,9.23
2019-05-02T22:49:16.385Z,9.80
2019-05-02T22:51:45.721Z,9.53
2019-05-02T22:54:26.631Z,8.90
2019-05-02T22:56:46.214Z,9.47
2019-05-02T22:59:15.538Z,9.90
2019-05-02T23:01:45.089Z,10.33
2019-05-02T23:04:14.483Z,11.30
2019-05-02T23:06:44.209Z,10.07
2019-05-02T23:09:14.749Z,9.83
2019-05-02T23:11:44.073Z,11.87
2019-05-02T23:14:13.413Z,10.00
2019-05-02T23:16:42.983Z,11.40
2019-05-02T23:19:13.131Z,10.73
2019-05-02T23:21:42.562Z,9.70
2019-05-02T23:24:18.875Z,8.77
2019-05-02T23:26:54.436Z,9.13
2019-05-02T23:29:23.774Z,9.10
2019-05-02T23:31:53.125Z,8.90
2019-05-02T23:34:23.644Z,9.33
2019-05-02T23:36:53.673Z,9.23
2019-05-02T23:39:23.011Z,8.90
2019-05-02T23:41:52.517Z,9.37
2019-05-02T23:44:22.828Z,9.50
2019-05-02T23:46:53.017Z,9.70
2019-05-02T23:49:22.385Z,9.30
2019-05-02T23:51:51.961Z,9.77
2019-05-02T23:54:22.067Z,9.93
2019-05-02T23:56:52.072Z,10.77
2019-05-02T23:59:22.361Z,9.33
